sensor_id;sensor_type;location;lat;lon;timestamp;P1;durP1;ratioP1;P2;durP2;ratioP2
29240;SDS011;16268;49.880;8.648;2023-02-22T00:00:10;11.82;;;5.60;;
29240;SDS011;16268;49.880;8.648;2023-02-22T00:02:44;11.68;;;5.45;;
29240;SDS011;16268;49.880;8.648;2023-02-22T00:05:10;11.85;;;5.57;;
29240;SDS011;16268;49.880;8.648;2023-02-22T00:07:39;10.50;;;5.90;;
29240;SDS011;16268;49.880;8.648;2023-02-22T00:10:06;11.23;;;5.82;;
29240;SDS011;16268;49.880;8.648;2023-02-22T00:12:37;11.80;;;6.10;;
29240;SDS011;16268;49.880;8.648;2023-02-22T00:15:08;12.20;;;6.45;;
29240;SDS011;16268;49.880;8.648;2023-02-22T00:17:37;13.52;;;6.60;;
29240;SDS011;16268;49.880;8.648;2023-02-22T00:20:02;10.77;;;5.95;;
29240;SDS011;16268;49.880;8.648;2023-02-22T00:22:31;13.63;;;6.68;;
29240;SDS011;16268;49.880;8.648;2023-02-22T00:24:57;13.68;;;6.45;;
29240;SDS011;16268;49.880;8.648;2023-02-22T00:27:23;9.30;;;5.95;;
29240;SDS011;16268;49.880;8.648;2023-02-22T00:29:49;10.80;;;6.05;;
29240;SDS011;16268;49.880;8.648;2023-02-22T00:32:14;12.35;;;6.13;;
29240;SDS011;16268;49.880;8.648;2023-02-22T00:34:40;12.20;;;5.55;;
29240;SDS011;16268;49.880;8.648;2023-02-22T00:37:07;11.48;;;5.95;;
29240;SDS011;16268;49.880;8.648;2023-02-22T00:39:34;12.45;;;5.80;;
29240;SDS011;16268;49.880;8.648;2023-02-22T00:42:00;9.13;;;5.72;;
29240;SDS011;16268;49.880;8.648;2023-02-22T00:44:26;12.75;;;6.20;;
29240;SDS011;16268;49.880;8.648;2023-02-22T00:46:51;11.45;;;5.97;;
29240;SDS011;16268;49.880;8.648;2023-02-22T00:49:17;13.13;;;6.13;;
29240;SDS011;16268;49.880;8.648;2023-02-22T00:51:42;12.40;;;5.53;;
29240;SDS011;16268;49.880;8.648;2023-02-22T00:54:08;12.48;;;5.93;;
29240;SDS011;16268;49.880;8.648;2023-02-22T00:56:35;11.13;;;5.32;;
29240;SDS011;16268;49.880;8.648;2023-02-22T00:59:02;14.10;;;5.45;;
29240;SDS011;16268;49.880;8.648;2023-02-22T01:01:28;9.82;;;5.45;;
29240;SDS011;16268;49.880;8.648;2023-02-22T01:03:54;12.82;;;6.13;;
29240;SDS011;16268;49.880;8.648;2023-02-22T01:06:20;10.48;;;5.72;;
29240;SDS011;16268;49.880;8.648;2023-02-22T01:08:47;13.02;;;5.97;;
29240;SDS011;16268;49.880;8.648;2023-02-22T01:11:14;10.07;;;5.35;;
29240;SDS011;16268;49.880;8.648;2023-02-22T01:13:41;12.00;;;5.93;;
29240;SDS011;16268;49.880;8.648;2023-02-22T01:16:09;12.15;;;5.70;;
29240;SDS011;16268;49.880;8.648;2023-02-22T01:18:34;12.93;;;5.70;;
29240;SDS011;16268;49.880;8.648;2023-02-22T01:21:01;12.15;;;5.47;;
29240;SDS011;16268;49.880;8.648;2023-02-22T01:23:27;9.40;;;5.25;;
29240;SDS011;16268;49.880;8.648;2023-02-22T01:25:53;9.80;;;5.20;;
29240;SDS011;16268;49.880;8.648;2023-02-22T01:28:18;8.75;;;5.15;;
29240;SDS011;16268;49.880;8.648;2023-02-22T01:30:46;9.55;;;5.03;;
29240;SDS011;16268;49.880;8.648;2023-02-22T01:33:12;10.27;;;5.10;;
29240;SDS011;16268;49.880;8.648;2023-02-22T01:35:39;9.93;;;5.05;;
29240;SDS011;16268;49.880;8.648;2023-02-22T01:38:05;10.80;;;4.97;;
29240;SDS011;16268;49.880;8.648;2023-02-22T01:40:42;9.25;;;4.75;;
29240;SDS011;16268;49.880;8.648;2023-02-22T01:43:21;11.25;;;4.88;;
29240;SDS011;16268;49.880;8.648;2023-02-22T01:48:37;9.52;;;4.70;;
29240;SDS011;16268;49.880;8.648;2023-02-22T01:51:26;8.55;;;4.50;;
29240;SDS011;16268;49.880;8.648;2023-02-22T01:54:02;11.73;;;5.00;;
29240;SDS011;16268;49.880;8.648;2023-02-22T01:56:32;8.35;;;4.38;;
29240;SDS011;16268;49.880;8.648;2023-02-22T01:59:01;9.55;;;4.70;;
29240;SDS011;16268;49.880;8.648;2023-02-22T02:01:30;9.52;;;4.82;;
29240;SDS011;16268;49.880;8.648;2023-02-22T02:04:02;8.90;;;4.90;;
29240;SDS011;16268;49.880;8.648;2023-02-22T02:06:33;11.30;;;5.47;;
29240;SDS011;16268;49.880;8.648;2023-02-22T02:09:08;8.77;;;5.00;;
29240;SDS011;16268;49.880;8.648;2023-02-22T02:11:46;11.63;;;4.78;;
29240;SDS011;16268;49.880;8.648;2023-02-22T02:14:13;9.60;;;5.13;;
29240;SDS011;16268;49.880;8.648;2023-02-22T02:16:43;11.13;;;5.57;;
29240;SDS011;16268;49.880;8.648;2023-02-22T02:22:41;11.30;;;4.75;;
29240;SDS011;16268;49.880;8.648;2023-02-22T02:34:25;9.45;;;4.90;;
29240;SDS011;16268;49.880;8.648;2023-02-22T02:37:11;11.57;;;4.72;;
29240;SDS011;16268;49.880;8.648;2023-02-22T02:39:50;9.90;;;4.30;;
29240;SDS011;16268;49.880;8.648;2023-02-22T02:42:19;9.05;;;4.38;;
29240;SDS011;16268;49.880;8.648;2023-02-22T02:44:57;8.20;;;4.22;;
29240;SDS011;16268;49.880;8.648;2023-02-22T02:47:31;8.40;;;4.60;;
29240;SDS011;16268;49.880;8.648;2023-02-22T02:50:06;9.88;;;4.50;;
29240;SDS011;16268;49.880;8.648;2023-02-22T02:52:35;10.95;;;5.00;;
29240;SDS011;16268;49.880;8.648;2023-02-22T02:55:03;10.52;;;4.90;;
29240;SDS011;16268;49.880;8.648;2023-02-22T02:57:30;9.95;;;4.88;;
29240;SDS011;16268;49.880;8.648;2023-02-22T02:59:56;7.45;;;4.53;;
29240;SDS011;16268;49.880;8.648;2023-02-22T03:08:16;8.82;;;4.70;;
29240;SDS011;16268;49.880;8.648;2023-02-22T03:11:15;10.75;;;5.05;;
29240;SDS011;16268;49.880;8.648;2023-02-22T03:13:47;8.57;;;4.80;;
29240;SDS011;16268;49.880;8.648;2023-02-22T03:24:31;9.65;;;5.10;;
29240;SDS011;16268;49.880;8.648;2023-02-22T03:27:08;12.38;;;6.05;;
29240;SDS011;16268;49.880;8.648;2023-02-22T03:29:42;9.18;;;5.20;;
29240;SDS011;16268;49.880;8.648;2023-02-22T03:32:11;10.85;;;5.20;;
29240;SDS011;16268;49.880;8.648;2023-02-22T03:34:41;10.35;;;5.15;;
29240;SDS011;16268;49.880;8.648;2023-02-22T03:37:24;9.77;;;4.78;;
29240;SDS011;16268;49.880;8.648;2023-02-22T03:39:54;9.57;;;4.72;;
29240;SDS011;16268;49.880;8.648;2023-02-22T03:42:23;8.90;;;4.43;;
29240;SDS011;16268;49.880;8.648;2023-02-22T03:44:54;10.18;;;4.53;;
29240;SDS011;16268;49.880;8.648;2023-02-22T03:47:27;8.15;;;4.20;;
29240;SDS011;16268;49.880;8.648;2023-02-22T03:50:00;8.70;;;4.30;;
29240;SDS011;16268;49.880;8.648;2023-02-22T03:52:31;9.93;;;4.80;;
29240;SDS011;16268;49.880;8.648;2023-02-22T03:54:59;8.95;;;4.90;;
29240;SDS011;16268;49.880;8.648;2023-02-22T03:57:27;9.70;;;4.80;;
29240;SDS011;16268;49.880;8.648;2023-02-22T03:59:55;10.40;;;5.45;;
29240;SDS011;16268;49.880;8.648;2023-02-22T04:02:21;8.43;;;4.90;;
29240;SDS011;16268;49.880;8.648;2023-02-22T04:04:47;7.93;;;4.90;;
29240;SDS011;16268;49.880;8.648;2023-02-22T04:07:14;9.32;;;4.85;;
29240;SDS011;16268;49.880;8.648;2023-02-22T04:09:40;13.18;;;5.55;;
29240;SDS011;16268;49.880;8.648;2023-02-22T04:12:06;9.40;;;5.47;;
29240;SDS011;16268;49.880;8.648;2023-02-22T04:14:31;10.18;;;4.90;;
29240;SDS011;16268;49.880;8.648;2023-02-22T04:16:57;8.95;;;5.57;;
29240;SDS011;16268;49.880;8.648;2023-02-22T04:19:22;9.75;;;4.90;;
29240;SDS011;16268;49.880;8.648;2023-02-22T04:21:48;9.25;;;5.50;;
29240;SDS011;16268;49.880;8.648;2023-02-22T04:24:13;8.82;;;5.20;;
29240;SDS011;16268;49.880;8.648;2023-02-22T04:26:39;10.88;;;5.10;;
29240;SDS011;16268;49.880;8.648;2023-02-22T04:29:05;9.90;;;5.47;;
29240;SDS011;16268;49.880;8.648;2023-02-22T04:31:30;9.48;;;5.07;;
29240;SDS011;16268;49.880;8.648;2023-02-22T04:33:57;10.07;;;5.30;;
29240;SDS011;16268;49.880;8.648;2023-02-22T04:36:24;8.70;;;5.50;;
29240;SDS011;16268;49.880;8.648;2023-02-22T04:38:51;9.93;;;5.18;;
29240;SDS011;16268;49.880;8.648;2023-02-22T04:41:17;10.65;;;4.95;;
29240;SDS011;16268;49.880;8.648;2023-02-22T04:43:43;10.07;;;4.60;;
29240;SDS011;16268;49.880;8.648;2023-02-22T04:46:09;9.75;;;5.38;;
29240;SDS011;16268;49.880;8.648;2023-02-22T04:48:34;10.63;;;4.95;;
29240;SDS011;16268;49.880;8.648;2023-02-22T04:50:59;10.18;;;4.63;;
29240;SDS011;16268;49.880;8.648;2023-02-22T04:53:25;8.05;;;4.50;;
29240;SDS011;16268;49.880;8.648;2023-02-22T04:55:51;10.77;;;4.93;;
29240;SDS011;16268;49.880;8.648;2023-02-22T04:58:16;10.18;;;5.00;;
29240;SDS011;16268;49.880;8.648;2023-02-22T05:00:42;12.13;;;5.72;;
29240;SDS011;16268;49.880;8.648;2023-02-22T05:03:07;9.43;;;4.85;;
29240;SDS011;16268;49.880;8.648;2023-02-22T05:05:33;9.07;;;5.18;;
29240;SDS011;16268;49.880;8.648;2023-02-22T05:07:58;9.05;;;4.53;;
29240;SDS011;16268;49.880;8.648;2023-02-22T05:10:24;7.68;;;4.70;;
29240;SDS011;16268;49.880;8.648;2023-02-22T05:12:49;9.25;;;4.80;;
29240;SDS011;16268;49.880;8.648;2023-02-22T05:15:17;11.38;;;5.03;;
29240;SDS011;16268;49.880;8.648;2023-02-22T05:17:44;10.07;;;5.10;;
29240;SDS011;16268;49.880;8.648;2023-02-22T05:20:27;8.80;;;4.50;;
29240;SDS011;16268;49.880;8.648;2023-02-22T05:22:54;8.57;;;4.57;;
29240;SDS011;16268;49.880;8.648;2023-02-22T05:25:21;8.50;;;5.05;;
29240;SDS011;16268;49.880;8.648;2023-02-22T05:27:50;8.57;;;4.75;;
29240;SDS011;16268;49.880;8.648;2023-02-22T05:30:17;9.68;;;5.32;;
29240;SDS011;16268;49.880;8.648;2023-02-22T05:32:45;9.38;;;4.97;;
29240;SDS011;16268;49.880;8.648;2023-02-22T05:35:10;10.02;;;5.75;;
29240;SDS011;16268;49.880;8.648;2023-02-22T05:37:37;10.65;;;4.72;;
29240;SDS011;16268;49.880;8.648;2023-02-22T05:40:02;10.18;;;4.85;;
29240;SDS011;16268;49.880;8.648;2023-02-22T05:42:28;10.25;;;5.30;;
29240;SDS011;16268;49.880;8.648;2023-02-22T05:44:54;10.45;;;5.25;;
29240;SDS011;16268;49.880;8.648;2023-02-22T05:47:19;8.82;;;4.90;;
29240;SDS011;16268;49.880;8.648;2023-02-22T05:49:45;8.98;;;5.22;;
29240;SDS011;16268;49.880;8.648;2023-02-22T05:52:10;11.52;;;5.30;;
29240;SDS011;16268;49.880;8.648;2023-02-22T05:54:36;10.15;;;5.78;;
29240;SDS011;16268;49.880;8.648;2023-02-22T05:57:01;9.25;;;4.75;;
29240;SDS011;16268;49.880;8.648;2023-02-22T05:59:27;10.75;;;5.53;;
29240;SDS011;16268;49.880;8.648;2023-02-22T06:01:54;10.43;;;4.90;;
29240;SDS011;16268;49.880;8.648;2023-02-22T06:04:19;10.85;;;5.45;;
29240;SDS011;16268;49.880;8.648;2023-02-22T06:06:45;9.40;;;5.22;;
29240;SDS011;16268;49.880;8.648;2023-02-22T06:09:10;11.02;;;5.45;;
29240;SDS011;16268;49.880;8.648;2023-02-22T06:11:36;8.73;;;5.30;;
29240;SDS011;16268;49.880;8.648;2023-02-22T06:14:01;11.48;;;5.63;;
29240;SDS011;16268;49.880;8.648;2023-02-22T06:16:27;12.93;;;5.85;;
29240;SDS011;16268;49.880;8.648;2023-02-22T06:18:52;11.93;;;6.10;;
29240;SDS011;16268;49.880;8.648;2023-02-22T06:21:18;14.40;;;5.90;;
29240;SDS011;16268;49.880;8.648;2023-02-22T06:23:43;12.25;;;5.85;;
29240;SDS011;16268;49.880;8.648;2023-02-22T06:26:09;12.15;;;6.22;;
29240;SDS011;16268;49.880;8.648;2023-02-22T06:28:34;12.05;;;5.57;;
29240;SDS011;16268;49.880;8.648;2023-02-22T06:31:00;12.68;;;5.82;;
29240;SDS011;16268;49.880;8.648;2023-02-22T06:33:26;11.63;;;6.35;;
29240;SDS011;16268;49.880;8.648;2023-02-22T06:35:51;11.98;;;5.82;;
29240;SDS011;16268;49.880;8.648;2023-02-22T06:38:20;12.45;;;6.38;;
29240;SDS011;16268;49.880;8.648;2023-02-22T06:40:47;10.88;;;6.10;;
29240;SDS011;16268;49.880;8.648;2023-02-22T06:43:13;14.18;;;7.15;;
29240;SDS011;16268;49.880;8.648;2023-02-22T06:45:38;14.52;;;7.82;;
29240;SDS011;16268;49.880;8.648;2023-02-22T06:48:04;13.95;;;7.82;;
29240;SDS011;16268;49.880;8.648;2023-02-22T06:50:29;16.73;;;8.27;;
29240;SDS011;16268;49.880;8.648;2023-02-22T06:52:55;14.45;;;7.95;;
29240;SDS011;16268;49.880;8.648;2023-02-22T06:55:23;16.73;;;8.25;;
29240;SDS011;16268;49.880;8.648;2023-02-22T06:57:51;16.02;;;8.45;;
29240;SDS011;16268;49.880;8.648;2023-02-22T07:00:17;15.90;;;8.10;;
29240;SDS011;16268;49.880;8.648;2023-02-22T07:02:45;15.02;;;8.02;;
29240;SDS011;16268;49.880;8.648;2023-02-22T07:05:12;14.95;;;8.20;;
29240;SDS011;16268;49.880;8.648;2023-02-22T07:07:39;14.85;;;7.82;;
29240;SDS011;16268;49.880;8.648;2023-02-22T07:10:05;15.68;;;8.15;;
29240;SDS011;16268;49.880;8.648;2023-02-22T07:12:32;15.48;;;7.72;;
29240;SDS011;16268;49.880;8.648;2023-02-22T07:14:58;17.58;;;8.98;;
29240;SDS011;16268;49.880;8.648;2023-02-22T07:17:23;17.13;;;10.10;;
29240;SDS011;16268;49.880;8.648;2023-02-22T07:19:49;24.52;;;11.82;;
29240;SDS011;16268;49.880;8.648;2023-02-22T07:22:15;19.58;;;11.50;;
29240;SDS011;16268;49.880;8.648;2023-02-22T07:24:41;18.35;;;10.43;;
29240;SDS011;16268;49.880;8.648;2023-02-22T07:27:07;14.73;;;9.60;;
29240;SDS011;16268;49.880;8.648;2023-02-22T07:29:32;18.77;;;9.70;;
29240;SDS011;16268;49.880;8.648;2023-02-22T07:32:00;19.23;;;10.15;;
29240;SDS011;16268;49.880;8.648;2023-02-22T07:34:26;15.90;;;9.30;;
29240;SDS011;16268;49.880;8.648;2023-02-22T07:36:51;17.88;;;9.27;;
29240;SDS011;16268;49.880;8.648;2023-02-22T07:39:17;16.92;;;9.40;;
29240;SDS011;16268;49.880;8.648;2023-02-22T07:41:43;14.38;;;9.40;;
29240;SDS011;16268;49.880;8.648;2023-02-22T07:44:08;16.30;;;9.63;;
29240;SDS011;16268;49.880;8.648;2023-02-22T07:46:34;17.25;;;9.90;;
29240;SDS011;16268;49.880;8.648;2023-02-22T07:48:59;15.48;;;9.75;;
29240;SDS011;16268;49.880;8.648;2023-02-22T07:51:25;18.95;;;10.52;;
29240;SDS011;16268;49.880;8.648;2023-02-22T07:53:50;18.05;;;10.00;;
29240;SDS011;16268;49.880;8.648;2023-02-22T07:56:16;17.80;;;9.98;;
29240;SDS011;16268;49.880;8.648;2023-02-22T07:58:42;21.95;;;10.40;;
29240;SDS011;16268;49.880;8.648;2023-02-22T08:01:07;17.40;;;9.85;;
29240;SDS011;16268;49.880;8.648;2023-02-22T08:03:34;16.20;;;9.73;;
29240;SDS011;16268;49.880;8.648;2023-02-22T08:06:01;17.02;;;9.93;;
29240;SDS011;16268;49.880;8.648;2023-02-22T08:08:28;17.10;;;9.63;;
29240;SDS011;16268;49.880;8.648;2023-02-22T08:10:53;18.45;;;9.75;;
29240;SDS011;16268;49.880;8.648;2023-02-22T08:13:20;18.02;;;10.30;;
29240;SDS011;16268;49.880;8.648;2023-02-22T08:15:47;14.60;;;9.10;;
29240;SDS011;16268;49.880;8.648;2023-02-22T08:18:15;16.25;;;9.32;;
29240;SDS011;16268;49.880;8.648;2023-02-22T08:20:42;16.45;;;8.73;;
29240;SDS011;16268;49.880;8.648;2023-02-22T08:23:09;14.15;;;9.30;;
29240;SDS011;16268;49.880;8.648;2023-02-22T08:25:36;14.82;;;8.63;;
29240;SDS011;16268;49.880;8.648;2023-02-22T08:28:03;14.93;;;8.55;;
29240;SDS011;16268;49.880;8.648;2023-02-22T08:30:32;13.77;;;8.00;;
29240;SDS011;16268;49.880;8.648;2023-02-22T08:33:01;15.65;;;9.23;;
29240;SDS011;16268;49.880;8.648;2023-02-22T08:35:27;15.80;;;9.43;;
29240;SDS011;16268;49.880;8.648;2023-02-22T08:37:57;14.63;;;8.55;;
29240;SDS011;16268;49.880;8.648;2023-02-22T08:40:26;13.52;;;8.50;;
29240;SDS011;16268;49.880;8.648;2023-02-22T08:42:55;13.40;;;8.90;;
29240;SDS011;16268;49.880;8.648;2023-02-22T08:45:21;13.90;;;9.05;;
29240;SDS011;16268;49.880;8.648;2023-02-22T08:47:47;12.77;;;9.10;;
29240;SDS011;16268;49.880;8.648;2023-02-22T08:50:17;14.75;;;9.15;;
29240;SDS011;16268;49.880;8.648;2023-02-22T08:52:51;13.68;;;8.98;;
29240;SDS011;16268;49.880;8.648;2023-02-22T08:55:20;15.27;;;9.13;;
29240;SDS011;16268;49.880;8.648;2023-02-22T08:57:46;13.32;;;8.95;;
29240;SDS011;16268;49.880;8.648;2023-02-22T09:00:12;15.48;;;8.90;;
29240;SDS011;16268;49.880;8.648;2023-02-22T09:02:39;12.18;;;8.25;;
29240;SDS011;16268;49.880;8.648;2023-02-22T09:05:05;15.57;;;8.95;;
29240;SDS011;16268;49.880;8.648;2023-02-22T09:07:31;14.90;;;9.23;;
29240;SDS011;16268;49.880;8.648;2023-02-22T09:09:57;14.18;;;8.88;;
29240;SDS011;16268;49.880;8.648;2023-02-22T09:12:22;16.08;;;9.15;;
29240;SDS011;16268;49.880;8.648;2023-02-22T09:14:48;12.73;;;8.30;;
29240;SDS011;16268;49.880;8.648;2023-02-22T09:17:13;15.52;;;9.13;;
29240;SDS011;16268;49.880;8.648;2023-02-22T09:19:39;14.45;;;8.95;;
29240;SDS011;16268;49.880;8.648;2023-02-22T09:22:05;13.70;;;8.85;;
29240;SDS011;16268;49.880;8.648;2023-02-22T09:24:30;13.30;;;8.23;;
29240;SDS011;16268;49.880;8.648;2023-02-22T09:26:56;12.35;;;8.48;;
29240;SDS011;16268;49.880;8.648;2023-02-22T09:29:24;14.50;;;9.05;;
29240;SDS011;16268;49.880;8.648;2023-02-22T09:31:51;12.73;;;8.52;;
29240;SDS011;16268;49.880;8.648;2023-02-22T09:34:18;12.77;;;8.43;;
29240;SDS011;16268;49.880;8.648;2023-02-22T09:36:47;13.88;;;8.55;;
29240;SDS011;16268;49.880;8.648;2023-02-22T09:39:14;12.70;;;8.85;;
29240;SDS011;16268;49.880;8.648;2023-02-22T09:44:39;13.40;;;9.25;;
29240;SDS011;16268;49.880;8.648;2023-02-22T09:47:19;15.63;;;9.85;;
29240;SDS011;16268;49.880;8.648;2023-02-22T09:49:57;15.65;;;9.35;;
29240;SDS011;16268;49.880;8.648;2023-02-22T09:52:40;15.70;;;10.15;;
29240;SDS011;16268;49.880;8.648;2023-02-22T09:57:58;16.17;;;10.82;;
29240;SDS011;16268;49.880;8.648;2023-02-22T10:00:28;15.70;;;10.55;;
29240;SDS011;16268;49.880;8.648;2023-02-22T10:05:34;17.13;;;10.93;;
29240;SDS011;16268;49.880;8.648;2023-02-22T10:08:04;15.65;;;11.02;;
29240;SDS011;16268;49.880;8.648;2023-02-22T10:10:37;16.13;;;10.82;;
29240;SDS011;16268;49.880;8.648;2023-02-22T10:13:11;16.02;;;11.18;;
29240;SDS011;16268;49.880;8.648;2023-02-22T10:15:48;14.30;;;10.50;;
29240;SDS011;16268;49.880;8.648;2023-02-22T10:23:51;15.35;;;10.75;;
29240;SDS011;16268;49.880;8.648;2023-02-22T10:26:29;16.70;;;11.68;;
29240;SDS011;16268;49.880;8.648;2023-02-22T10:31:27;16.48;;;11.50;;
29240;SDS011;16268;49.880;8.648;2023-02-22T10:34:01;17.38;;;11.75;;
29240;SDS011;16268;49.880;8.648;2023-02-22T10:36:29;17.95;;;11.98;;
29240;SDS011;16268;49.880;8.648;2023-02-22T10:38:57;20.25;;;13.23;;
29240;SDS011;16268;49.880;8.648;2023-02-22T10:41:29;17.30;;;13.10;;
29240;SDS011;16268;49.880;8.648;2023-02-22T10:43:57;20.00;;;13.05;;
29240;SDS011;16268;49.880;8.648;2023-02-22T10:46:23;16.83;;;12.45;;
29240;SDS011;16268;49.880;8.648;2023-02-22T10:48:53;20.15;;;12.60;;
29240;SDS011;16268;49.880;8.648;2023-02-22T10:51:20;16.92;;;12.30;;
29240;SDS011;16268;49.880;8.648;2023-02-22T10:53:52;16.38;;;11.57;;
29240;SDS011;16268;49.880;8.648;2023-02-22T10:56:51;17.60;;;13.35;;
29240;SDS011;16268;49.880;8.648;2023-02-22T10:59:38;18.45;;;12.57;;
29240;SDS011;16268;49.880;8.648;2023-02-22T11:04:49;15.50;;;12.45;;
29240;SDS011;16268;49.880;8.648;2023-02-22T11:07:17;18.80;;;13.00;;
29240;SDS011;16268;49.880;8.648;2023-02-22T11:10:06;18.65;;;12.30;;
29240;SDS011;16268;49.880;8.648;2023-02-22T11:17:52;18.52;;;12.02;;
29240;SDS011;16268;49.880;8.648;2023-02-22T11:20:22;17.58;;;11.95;;
29240;SDS011;16268;49.880;8.648;2023-02-22T11:22:53;18.63;;;12.00;;
29240;SDS011;16268;49.880;8.648;2023-02-22T11:25:24;17.58;;;12.32;;
29240;SDS011;16268;49.880;8.648;2023-02-22T11:30:45;15.73;;;11.68;;
29240;SDS011;16268;49.880;8.648;2023-02-22T11:33:17;17.90;;;12.55;;
29240;SDS011;16268;49.880;8.648;2023-02-22T11:35:57;18.13;;;12.65;;
29240;SDS011;16268;49.880;8.648;2023-02-22T11:38:27;17.40;;;12.30;;
29240;SDS011;16268;49.880;8.648;2023-02-22T11:41:04;17.40;;;12.18;;
29240;SDS011;16268;49.880;8.648;2023-02-22T11:43:30;19.42;;;12.35;;
29240;SDS011;16268;49.880;8.648;2023-02-22T11:46:06;17.27;;;11.77;;
29240;SDS011;16268;49.880;8.648;2023-02-22T11:48:37;19.85;;;12.50;;
29240;SDS011;16268;49.880;8.648;2023-02-22T11:56:21;16.23;;;10.88;;
29240;SDS011;16268;49.880;8.648;2023-02-22T12:09:41;17.88;;;11.35;;
29240;SDS011;16268;49.880;8.648;2023-02-22T12:12:34;14.88;;;10.63;;
29240;SDS011;16268;49.880;8.648;2023-02-22T12:15:22;16.48;;;11.20;;
29240;SDS011;16268;49.880;8.648;2023-02-22T12:20:35;15.05;;;10.48;;
29240;SDS011;16268;49.880;8.648;2023-02-22T12:23:24;15.82;;;10.88;;
29240;SDS011;16268;49.880;8.648;2023-02-22T12:26:00;16.23;;;10.60;;
29240;SDS011;16268;49.880;8.648;2023-02-22T12:28:42;15.07;;;10.18;;
29240;SDS011;16268;49.880;8.648;2023-02-22T12:31:19;14.73;;;10.40;;
29240;SDS011;16268;49.880;8.648;2023-02-22T12:36:54;14.75;;;10.10;;
29240;SDS011;16268;49.880;8.648;2023-02-22T12:39:48;15.13;;;10.23;;
29240;SDS011;16268;49.880;8.648;2023-02-22T12:42:25;17.33;;;10.70;;
29240;SDS011;16268;49.880;8.648;2023-02-22T12:45:01;20.38;;;13.70;;
29240;SDS011;16268;49.880;8.648;2023-02-22T12:47:35;16.42;;;10.63;;
29240;SDS011;16268;49.880;8.648;2023-02-22T12:55:43;14.55;;;10.63;;
29240;SDS011;16268;49.880;8.648;2023-02-22T13:01:00;13.93;;;10.10;;
29240;SDS011;16268;49.880;8.648;2023-02-22T13:03:33;16.70;;;10.57;;
29240;SDS011;16268;49.880;8.648;2023-02-22T13:09:14;16.55;;;10.60;;
29240;SDS011;16268;49.880;8.648;2023-02-22T13:17:56;16.38;;;10.63;;
29240;SDS011;16268;49.880;8.648;2023-02-22T13:23:14;16.40;;;11.60;;
29240;SDS011;16268;49.880;8.648;2023-02-22T13:25:47;18.67;;;12.57;;
29240;SDS011;16268;49.880;8.648;2023-02-22T13:28:35;18.52;;;12.02;;
29240;SDS011;16268;49.880;8.648;2023-02-22T13:36:49;17.02;;;12.40;;
29240;SDS011;16268;49.880;8.648;2023-02-22T13:45:19;22.38;;;12.70;;
29240;SDS011;16268;49.880;8.648;2023-02-22T13:50:29;16.85;;;12.00;;
29240;SDS011;16268;49.880;8.648;2023-02-22T13:53:15;17.15;;;11.77;;
29240;SDS011;16268;49.880;8.648;2023-02-22T13:55:50;17.10;;;10.93;;
29240;SDS011;16268;49.880;8.648;2023-02-22T13:58:18;15.82;;;10.80;;
29240;SDS011;16268;49.880;8.648;2023-02-22T14:00:51;18.73;;;12.30;;
29240;SDS011;16268;49.880;8.648;2023-02-22T14:03:35;18.38;;;11.10;;
29240;SDS011;16268;49.880;8.648;2023-02-22T14:06:05;18.67;;;11.50;;
29240;SDS011;16268;49.880;8.648;2023-02-22T14:10:58;19.17;;;12.95;;
29240;SDS011;16268;49.880;8.648;2023-02-22T14:13:30;18.50;;;11.65;;
29240;SDS011;16268;49.880;8.648;2023-02-22T14:16:24;16.67;;;11.48;;
29240;SDS011;16268;49.880;8.648;2023-02-22T14:21:37;17.50;;;10.85;;
29240;SDS011;16268;49.880;8.648;2023-02-22T14:24:26;17.92;;;11.30;;
29240;SDS011;16268;49.880;8.648;2023-02-22T14:26:59;18.15;;;11.30;;
29240;SDS011;16268;49.880;8.648;2023-02-22T14:29:27;18.00;;;11.80;;
29240;SDS011;16268;49.880;8.648;2023-02-22T14:31:58;16.13;;;10.70;;
29240;SDS011;16268;49.880;8.648;2023-02-22T14:37:12;18.65;;;11.23;;
29240;SDS011;16268;49.880;8.648;2023-02-22T14:39:45;16.30;;;10.57;;
29240;SDS011;16268;49.880;8.648;2023-02-22T14:44:53;20.02;;;11.77;;
29240;SDS011;16268;49.880;8.648;2023-02-22T14:47:31;16.98;;;10.55;;
29240;SDS011;16268;49.880;8.648;2023-02-22T14:50:06;17.38;;;10.88;;
29240;SDS011;16268;49.880;8.648;2023-02-22T14:52:38;16.80;;;10.95;;
29240;SDS011;16268;49.880;8.648;2023-02-22T15:00:27;16.52;;;10.25;;
29240;SDS011;16268;49.880;8.648;2023-02-22T15:03:10;16.15;;;10.48;;
29240;SDS011;16268;49.880;8.648;2023-02-22T15:06:21;16.38;;;11.43;;
29240;SDS011;16268;49.880;8.648;2023-02-22T15:09:03;15.60;;;9.73;;
29240;SDS011;16268;49.880;8.648;2023-02-22T15:11:48;17.05;;;10.40;;
29240;SDS011;16268;49.880;8.648;2023-02-22T15:14:29;19.25;;;10.30;;
29240;SDS011;16268;49.880;8.648;2023-02-22T15:17:02;16.88;;;10.50;;
29240;SDS011;16268;49.880;8.648;2023-02-22T15:19:33;17.33;;;10.45;;
29240;SDS011;16268;49.880;8.648;2023-02-22T15:22:02;16.27;;;10.40;;
29240;SDS011;16268;49.880;8.648;2023-02-22T15:24:33;14.60;;;9.98;;
29240;SDS011;16268;49.880;8.648;2023-02-22T15:27:13;17.77;;;10.65;;
29240;SDS011;16268;49.880;8.648;2023-02-22T15:29:42;18.02;;;10.80;;
29240;SDS011;16268;49.880;8.648;2023-02-22T15:32:18;17.52;;;10.35;;
29240;SDS011;16268;49.880;8.648;2023-02-22T15:34:54;16.15;;;10.13;;
29240;SDS011;16268;49.880;8.648;2023-02-22T15:37:23;16.38;;;10.38;;
29240;SDS011;16268;49.880;8.648;2023-02-22T15:39:52;14.82;;;9.55;;
29240;SDS011;16268;49.880;8.648;2023-02-22T15:42:23;14.95;;;9.43;;
29240;SDS011;16268;49.880;8.648;2023-02-22T15:44:50;16.38;;;10.02;;
29240;SDS011;16268;49.880;8.648;2023-02-22T15:47:24;16.77;;;9.40;;
29240;SDS011;16268;49.880;8.648;2023-02-22T15:50:13;15.15;;;9.80;;
29240;SDS011;16268;49.880;8.648;2023-02-22T15:55:25;16.52;;;10.13;;
29240;SDS011;16268;49.880;8.648;2023-02-22T15:57:51;18.23;;;10.88;;
29240;SDS011;16268;49.880;8.648;2023-02-22T16:00:18;15.57;;;10.40;;
29240;SDS011;16268;49.880;8.648;2023-02-22T16:02:46;18.38;;;10.70;;
29240;SDS011;16268;49.880;8.648;2023-02-22T16:05:14;18.43;;;10.33;;
29240;SDS011;16268;49.880;8.648;2023-02-22T16:07:43;16.85;;;10.60;;
29240;SDS011;16268;49.880;8.648;2023-02-22T16:12:45;24.13;;;16.65;;
29240;SDS011;16268;49.880;8.648;2023-02-22T16:15:17;24.90;;;17.55;;
29240;SDS011;16268;49.880;8.648;2023-02-22T16:17:43;23.52;;;16.10;;
29240;SDS011;16268;49.880;8.648;2023-02-22T16:22:44;26.05;;;17.13;;
29240;SDS011;16268;49.880;8.648;2023-02-22T16:27:47;27.52;;;17.38;;
29240;SDS011;16268;49.880;8.648;2023-02-22T16:30:32;26.70;;;17.65;;
29240;SDS011;16268;49.880;8.648;2023-02-22T16:33:01;25.00;;;17.92;;
29240;SDS011;16268;49.880;8.648;2023-02-22T16:35:29;28.63;;;18.00;;
29240;SDS011;16268;49.880;8.648;2023-02-22T16:37:59;24.58;;;17.27;;
29240;SDS011;16268;49.880;8.648;2023-02-22T16:40:31;25.30;;;17.02;;
29240;SDS011;16268;49.880;8.648;2023-02-22T16:43:00;22.58;;;17.30;;
29240;SDS011;16268;49.880;8.648;2023-02-22T16:45:30;26.33;;;17.98;;
29240;SDS011;16268;49.880;8.648;2023-02-22T16:47:57;26.23;;;17.30;;
29240;SDS011;16268;49.880;8.648;2023-02-22T16:50:24;23.70;;;16.95;;
29240;SDS011;16268;49.880;8.648;2023-02-22T16:52:49;23.20;;;17.48;;
29240;SDS011;16268;49.880;8.648;2023-02-22T16:55:17;25.63;;;19.02;;
29240;SDS011;16268;49.880;8.648;2023-02-22T16:57:44;27.13;;;18.58;;
29240;SDS011;16268;49.880;8.648;2023-02-22T17:00:14;27.67;;;18.25;;
29240;SDS011;16268;49.880;8.648;2023-02-22T17:02:55;27.45;;;18.77;;
29240;SDS011;16268;49.880;8.648;2023-02-22T17:05:22;24.98;;;17.88;;
29240;SDS011;16268;49.880;8.648;2023-02-22T17:07:48;27.45;;;18.90;;